Birch Hills, Canada
Current Conditions -  °F | °C
As of 9:00 AM on Friday 24 Oct 2014 (Local Time) from CYPA Reporting Station
Scattered Clouds Scattered Clouds  
Wind Chill: 33°   Ceiling: Unl
Heat Index: 41°   Visibility: 15mi
Dew Point: 34°   Wind: 15mph
Humidity: 76%   Direction: 280°W
Pressure: 29.6"   Gusts: 22mph
Location:  52.98°N, 105.44°W
Report Text: CYPA 241500Z 28013G19KT 15SM FEW110 SCT220 05/01 A2960 RMK AC2CI2 SLP039
Loading
Personal Weather Stations






























Interactive Weather Map
Tropical Storm Tracking
New forecast layout! Learn more

10-Day Weather Forecast

Advertisements
Track Severe Weather on mobile